Latest Weather Observations for Moss Vale

IDN60801

Issued at 1:32 pm EST Thursday 30 July 2015 (issued every 30 minutes, with the page automatically refreshed every 10 minutes)

About weather observations | Map of weather stations | Latest weather observations for NSW | Other Formats
Station Details ID: 068239 Name: MOSS VALE AWS Lat: -34.53 Lon: 150.42 Height: 678.4 m
Data from the previous 72 hours. | See also: Recent months at Moss Vale
Date/Time
EST
Temp
°C
App
Temp
°C
Dew
Point
Rel
Hum
%
Delta-T
°C
Wind Press
QNH
hPa
Press
MSL
hPa
Rain
since 9 am
mm
Dir
 
Spd
km/h
Gust
km/h
Spd
kts
Gust
kts
30/01:30pm 13.0 4.7 -1.7 36 6.1 W 32 50 17 27 1020.6 1021.4 0.0
30/01:28pm 13.0 4.6 -2.1 35 6.2 W 32 50 17 27 1020.7 1021.5 0.0
30/01:00pm 12.5 4.1 -2.5 35 6.1 WSW 32 43 17 23 1020.9 1021.7 0.0
30/12:30pm 12.6 6.1 0.0 42 5.4 W 24 37 13 20 1021.6 1022.4 0.0
30/12:00pm 11.6 4.6 -0.5 43 5.1 WNW 26 39 14 21 1022.1 1022.9 0.0
30/11:00am 10.2 3.5 1.3 54 3.8 NW 26 35 14 19 1023.1 1023.9 0.0
30/10:30am 9.2 2.9 1.4 58 3.4 WNW 24 35 13 19 1023.8 1024.7 0.0
30/10:00am 8.7 2.0 1.4 60 3.1 WNW 26 39 14 21 1024.3 1025.1 0.0
30/09:30am 8.1 2.7 2.4 67 2.5 WNW 20 28 11 15 1024.7 1025.5 0.0
30/09:00am 7.6 2.7 1.9 67 2.4 NW 17 24 9 13 1025.1 1026.0 0.2
30/08:30am 7.2 3.2 3.1 75 1.8 NNW 13 22 7 12 1025.2 1026.1 0.2
30/08:00am 5.3 1.6 2.3 81 1.3 N 11 13 6 7 1025.4 1026.3 0.2
30/07:30am 4.4 0.2 1.8 83 1.1 N 13 17 7 9 1025.2 1026.1 0.2
30/07:00am 4.1 -0.2 1.3 82 1.1 NNW 13 17 7 9 1025.0 1025.9 0.2
30/06:30am 3.9 -0.5 0.6 79 1.3 NNW 13 17 7 9 1025.1 1026.0 0.2
30/06:00am 3.4 -0.1 1.3 86 0.8 N 9 13 5 7 1025.0 1025.9 0.2
30/05:30am 3.0 -0.8 1.8 92 0.5 N 11 13 6 7 1025.1 1026.0 0.0
30/05:00am 3.6 0.3 2.4 92 0.5 N 9 11 5 6 1025.3 1026.2 0.0
30/04:30am 3.5 0.5 2.3 92 0.5 WNW 7 9 4 5 1025.8 1026.6 0.0
30/04:00am 4.2 1.4 3.0 92 0.5 N 7 9 4 5 1025.9 1026.7 0.0
30/03:30am 4.8 1.7 3.6 92 0.5 NNW 9 13 5 7 1026.1 1026.9 0.0
30/03:00am 4.9 2.4 3.7 92 0.5 NNW 6 7 3 4 1026.3 1027.2 0.0
30/02:30am 5.4 2.8 4.4 93 0.4 NW 7 11 4 6 1026.5 1027.4 0.0
30/02:00am 5.1 1.0 4.2 94 0.4 N 15 17 8 9 1026.9 1027.8 0.0
30/01:30am 5.3 1.6 4.3 93 0.4 N 13 19 7 10 1027.0 1027.9 0.0
30/01:00am 6.0 1.3 5.1 94 0.4 NNE 19 22 10 12 1027.1 1028.0 0.0
30/12:30am 6.4 1.8 5.4 93 0.5 N 19 22 10 12 1028.2 1029.1 0.0
30/12:00am 6.5 1.9 5.8 95 0.3 N 19 22 10 12 1028.4 1029.3 0.0
 
Date/Time
EST
Temp
°C
App
Temp
°C
Dew
Point
Rel
Hum
%
Delta-T
°C
Wind Press
QNH
hPa
Press
MSL
hPa
Rain
since 9 am
mm
Dir
 
Spd
km/h
Gust
km/h
Spd
kts
Gust
kts
29/11:30pm 6.6 1.8 5.7 94 0.4 N 20 24 11 13 1028.7 1029.7 0.0
29/11:00pm 6.6 1.1 5.9 95 0.3 NNE 24 28 13 15 1028.5 1029.4 0.0
29/10:30pm 6.4 0.8 5.5 94 0.4 NNE 24 30 13 16 1028.9 1029.8 0.0
29/10:00pm 6.2 1.6 5.5 95 0.3 NNE 19 24 10 13 1029.4 1030.3 0.0
29/09:30pm 5.8 2.8 4.1 89 0.8 NE 9 13 5 7 1029.7 1030.6 0.0
29/09:00pm 5.7 3.0 3.5 86 1.0 NE 7 11 4 6 1029.8 1030.7 0.0
29/08:30pm 5.1 2.4 2.6 84 1.1 NNE 6 7 3 4 1029.9 1030.9 0.0
29/08:00pm 5.8 2.6 3.0 82 1.2 NNE 9 13 5 7 1029.5 1030.4 0.0
29/07:30pm 6.2 3.0 2.8 79 1.5 NNE 9 11 5 6 1029.6 1030.5 0.0
29/07:00pm 6.1 3.2 2.7 79 1.5 NE 7 9 4 5 1029.9 1030.9 0.0
29/06:30pm 6.6 3.0 3.0 78 1.6 NNE 11 13 6 7 1029.7 1030.6 0.0
29/06:00pm 7.7 4.9 3.4 74 1.9 NNE 7 9 4 5 1029.5 1030.4 0.0
29/05:30pm 8.6 5.8 3.4 70 2.3 N 7 9 4 5 1029.3 1030.2 0.0
29/05:00pm 9.0 5.5 3.4 68 2.5 N 11 13 6 7 1029.1 1030.0 0.0
29/04:30pm 10.0 6.1 3.5 64 3.0 N 13 17 7 9 1029.2 1030.1 0.0
29/04:00pm 11.1 7.5 3.2 58 3.6 N 11 17 6 9 1029.1 1030.0 0.0
29/03:30pm 12.2 9.0 2.9 53 4.2 NW 9 17 5 9 1029.3 1030.2 0.0
29/03:00pm 12.2 9.0 2.9 53 4.2 NW 9 19 5 10 1029.5 1030.4 0.0
29/02:30pm 12.0 7.8 1.9 50 4.5 NW 13 20 7 11 1029.8 1030.7 0.0
29/02:00pm 12.0 7.5 2.2 51 4.4 NNW 15 24 8 13 1030.1 1031.1 0.0
29/01:30pm 12.0 6.5 1.9 50 4.5 NW 20 28 11 15 1030.6 1031.5 0.0
29/01:00pm 11.7 6.4 3.0 55 3.9 NNW 20 26 11 14 1031.0 1031.9 0.0
29/12:30pm 11.4 6.0 1.1 49 4.5 NNW 19 28 10 15 1031.4 1032.4 0.0
29/12:00pm 11.6 7.1 2.4 53 4.1 N 15 20 8 11 1032.2 1033.1 0.0
29/11:30am 10.4 7.3 3.4 62 3.2 W 9 13 5 7 1032.8 1033.8 0.0
29/11:00am 9.7 6.8 2.8 62 3.0 SW 7 11 4 6 1033.3 1034.3 0.0
29/10:30am 9.9 7.7 3.2 63 3.0 ENE 4 9 2 5 1033.7 1034.7 0.0
29/10:00am 7.9 5.1 3.0 71 2.1 W 7 9 4 5 1034.1 1035.1 0.0
29/09:30am 6.0 3.0 2.3 77 1.6 WSW 7 9 4 5 1034.2 1035.2 0.0
29/09:00am 4.2 1.6 1.2 81 1.2 WNW 4 7 2 4 1034.1 1035.1 0.0
29/08:30am 2.5 0.6 0.6 87 0.7 CALM 0 0 0 0 1034.3 1035.3 0.0
29/08:00am 1.6 -0.3 0.6 93 0.4 CALM 0 0 0 0 1034.2 1035.2 0.0
29/07:54am 1.0 -1.0 0.0 93 0.4 CALM 0 0 0 0 1034.1 1035.1 0.0
29/07:30am -1.1 -4.5 -2.1 93 0.3 WSW 6 7 3 4 1033.8 1034.8 0.0
29/07:14am -0.3 -2.5 -1.3 93 0.4 CALM 0 0 0 0 1033.7 1034.7 0.0
29/07:07am -0.3 -2.5 -1.3 93 0.4 CALM 0 0 0 0 1033.5 1034.5 0.0
29/07:00am -0.3 -2.5 -1.3 93 0.3 CALM 0 0 0 0 1033.4 1034.4 0.0
29/06:50am -0.8 -3.0 -1.8 93 0.3 CALM 0 0 0 0 1033.3 1034.3 0.0
29/06:30am -0.4 -3.7 -1.4 93 0.3 W 6 9 3 5 1033.2 1034.2 0.0
29/06:00am -0.8 -4.2 -1.8 93 0.3 N 6 7 3 4 1033.0 1034.0 0.0
29/05:30am -0.8 -4.7 -1.8 93 0.3 SW 9 13 5 7 1032.8 1033.8 0.0
29/05:13am -1.0 -4.6 -2.0 93 0.3 WSW 7 11 4 6 1032.8 1033.8 0.0
29/05:00am -0.7 -3.3 -1.7 93 0.3 WSW 2 7 1 4 1032.8 1033.8 0.0
29/04:30am -0.6 -2.8 -1.6 93 0.3 CALM 0 0 0 0 1032.7 1033.7 0.0
29/04:12am -0.2 -3.1 -1.2 93 0.4 NW 4 6 2 3 1032.6 1033.6 0.0
29/04:03am -0.2 -3.5 -1.2 93 0.4 WNW 6 7 3 4 1032.6 1033.6 0.0
29/04:00am 0.0 -3.3 -1.0 93 0.4 WNW 6 7 3 4 1032.6 1033.6 0.0
29/03:30am -1.0 -4.6 -2.0 93 0.3 NW 7 9 4 5 1032.6 1033.6 0.0
29/03:00am -1.1 -4.5 -2.1 93 0.3 ESE 6 9 3 5 1032.6 1033.6 0.0
29/02:30am 0.0 -2.1 -1.0 93 0.4 CALM 0 2 0 1 1032.7 1033.7 0.0
29/02:00am 0.3 -3.1 -0.7 93 0.4 WNW 7 9 4 5 1032.7 1033.7 0.0
29/01:30am 0.3 -1.8 -0.8 92 0.4 CALM 0 0 0 0 1032.8 1033.8 0.0
29/01:00am 0.2 -3.6 -0.9 92 0.4 WSW 9 9 5 5 1032.7 1033.7 0.0
29/12:30am 0.2 -2.0 -1.2 90 0.5 CALM 0 0 0 0 1032.7 1033.7 0.0
29/12:27am 0.3 -1.8 -1.1 90 0.5 CALM 0 0 0 0 1032.7 1033.7 0.0
29/12:00am 0.9 -2.2 0.0 94 0.3 WSW 6 9 3 5 1032.8 1033.8 0.0
 
Date/Time
EST
Temp
°C
App
Temp
°C
Dew
Point
Rel
Hum
%
Delta-T
°C
Wind Press
QNH
hPa
Press
MSL
hPa
Rain
since 9 am
mm
Dir
 
Spd
km/h
Gust
km/h
Spd
kts
Gust
kts
28/11:30pm 1.4 -1.6 0.5 94 0.3 WSW 6 7 3 4 1032.9 1033.9 0.0
28/11:00pm 1.4 -1.3 0.2 92 0.5 NW 4 9 2 5 1032.8 1033.8 0.0
28/10:30pm 2.1 -1.5 0.9 92 0.5 WSW 9 11 5 6 1033.0 1034.0 0.0
28/10:00pm 2.8 -0.7 1.0 88 0.7 WSW 9 13 5 7 1032.9 1033.9 0.0
28/09:30pm 3.1 1.3 1.3 88 0.7 CALM 0 0 0 0 1033.0 1034.0 0.0
28/09:00pm 3.7 2.0 1.9 88 0.7 CALM 0 0 0 0 1032.9 1033.9 0.0
28/08:30pm 3.5 0.4 1.4 86 0.9 NNE 7 9 4 5 1032.7 1033.7 0.0
28/08:00pm 4.3 0.9 1.7 83 1.1 E 9 11 5 6 1032.5 1033.5 0.0
28/07:30pm 5.2 3.5 1.7 78 1.5 CALM 0 0 0 0 1032.3 1033.2 0.0
28/07:00pm 5.3 2.5 2.0 79 1.4 NE 6 9 3 5 1032.3 1033.2 0.0
28/06:30pm 5.3 2.3 1.8 78 1.5 NNE 7 9 4 5 1031.8 1032.8 0.0
28/06:00pm 6.3 3.3 2.0 74 1.8 N 7 7 4 4 1031.3 1032.3 0.0
28/05:30pm 7.2 4.4 1.9 69 2.3 NNE 6 7 3 4 1030.9 1031.8 0.0
28/05:00pm 8.0 4.9 1.6 64 2.7 NNE 7 9 4 5 1030.7 1031.6 0.0
28/04:30pm 9.6 7.8 1.5 57 3.5 CALM 0 0 0 0 1030.7 1031.6 0.0
28/04:00pm 9.9 7.0 1.5 56 3.6 SSE 6 9 3 5 1030.7 1031.6 0.0
28/03:30pm 9.6 6.1 1.3 56 3.6 SW 9 13 5 7 1030.6 1031.5 0.0
28/03:00pm 11.1 7.1 2.7 56 3.8 WSW 13 19 7 10 1030.5 1031.4 0.0
28/02:30pm 9.9 5.5 0.5 52 4.0 SSW 13 22 7 12 1030.6 1031.5 0.0
28/02:00pm 10.6 6.1 1.9 55 3.8 SW 15 22 8 12 1030.2 1031.2 0.0
28/01:30pm 10.1 4.7 1.2 54 3.8 SSW 19 24 10 13 1030.5 1031.4 0.0
28/01:00pm 10.1 4.7 1.2 54 3.8 SSW 19 30 10 16 1030.7 1031.6 0.0
28/12:30pm 9.8 4.6 2.2 59 3.3 SW 19 26 10 14 1031.0 1031.9 0.0
28/12:00pm 9.3 3.7 1.2 57 3.4 SSW 20 30 11 16 1031.3 1032.3 0.0
28/11:30am 8.9 2.7 2.3 63 2.9 WSW 24 35 13 19 1031.8 1032.8 0.0
28/11:00am 8.2 2.1 0.7 59 3.1 WSW 22 28 12 15 1032.3 1033.2 0.0
28/10:30am 7.5 2.1 1.1 64 2.7 WSW 19 24 10 13 1032.5 1033.5 0.0
28/10:00am 6.4 0.7 0.7 67 2.3 W 20 28 11 15 1032.4 1033.4 0.0
28/09:30am 5.6 0.0 1.0 72 1.9 WSW 20 32 11 17 1032.3 1033.2 0.0
28/09:00am 4.6 -0.9 0.9 77 1.5 W 19 26 10 14 1032.2 1033.1 0.0
28/08:30am 3.5 -2.2 0.6 81 1.2 WSW 20 28 11 15 1031.8 1032.8 0.0
28/08:00am 2.4 -3.4 0.0 84 0.9 WSW 20 28 11 15 1031.5 1032.5 0.0
28/07:30am 1.0 -3.1 -0.5 90 0.6 WSW 11 17 6 9 1031.1 1032.0 0.0
28/07:00am 0.7 -3.1 -0.6 91 0.5 WSW 9 11 5 6 1031.0 1031.9 0.0
28/06:30am 1.0 -2.8 -0.6 89 0.6 W 9 15 5 8 1030.7 1031.6 0.0
28/06:00am 0.8 -4.1 -0.8 89 0.6 WSW 15 19 8 10 1030.3 1031.3 0.0
28/05:30am 0.9 -4.4 -0.9 88 0.7 WSW 17 20 9 11 1029.9 1030.9 0.0
28/05:00am 0.9 -3.3 -0.9 88 0.7 W 11 17 6 9 1029.5 1030.4 0.0
28/04:30am 1.0 -4.0 -0.9 87 0.7 W 15 19 8 10 1029.3 1030.2 0.0
28/04:00am 1.2 -3.7 -0.7 87 0.7 WSW 15 20 8 11 1029.1 1030.0 0.0
28/03:30am 1.5 -4.2 -0.6 86 0.8 WSW 19 24 10 13 1028.9 1029.8 0.0
28/03:00am 1.5 -3.8 -0.6 86 0.8 WSW 17 24 9 13 1028.7 1029.7 0.0
28/02:30am 1.5 -4.4 -0.7 85 0.8 WSW 20 26 11 14 1028.7 1029.7 0.0
28/02:00am 1.4 -4.5 -0.8 85 0.8 WSW 20 26 11 14 1028.7 1029.7 0.0
28/01:30am 1.5 -4.4 -1.1 83 1.0 W 20 24 11 13 1028.5 1029.4 0.0
28/01:00am 1.7 -4.2 -1.0 82 1.0 W 20 26 11 14 1028.4 1029.3 0.0
28/12:30am 1.8 -4.1 -1.1 81 1.1 W 20 28 11 15 1028.4 1029.3 0.0
28/12:00am 1.6 -4.7 -1.0 83 1.0 WSW 22 28 12 15 1028.4 1029.3 0.0
 
Date/Time
EST
Temp
°C
App
Temp
°C
Dew
Point
Rel
Hum
%
Delta-T
°C
Wind Press
QNH
hPa
Press
MSL
hPa
Rain
since 9 am
mm
Dir
 
Spd
km/h
Gust
km/h
Spd
kts
Gust
kts
27/11:30pm 1.7 -4.6 -1.0 82 1.0 WSW 22 28 12 15 1028.5 1029.4 0.0
27/11:00pm 2.0 -3.9 -0.9 81 1.1 WSW 20 28 11 15 1028.5 1029.4 0.0
27/10:30pm 2.0 -3.9 -0.9 81 1.1 WSW 20 30 11 16 1028.5 1029.4 0.0
27/10:00pm 2.1 -3.6 -0.6 82 1.0 WSW 19 28 10 15 1028.3 1029.2 0.0
27/09:30pm 2.1 -3.2 -0.8 81 1.1 W 17 24 9 13 1028.3 1029.2 0.0
27/09:00pm 2.2 -4.9 -0.9 80 1.2 WSW 26 39 14 21 1027.9 1028.8 0.0
27/08:30pm 2.5 -4.5 -0.8 79 1.3 WSW 26 35 14 19 1027.6 1028.5 0.0
27/08:00pm 2.7 -4.3 -0.7 78 1.3 WSW 26 37 14 20 1027.1 1028.0 0.0
27/07:30pm 2.9 -4.5 -0.7 77 1.4 WSW 28 37 15 20 1027.0 1027.9 0.0
27/07:00pm 3.0 -4.4 -0.8 76 1.4 WSW 28 37 15 20 1026.5 1027.4 0.0
27/06:30pm 3.2 -4.2 -0.8 75 1.5 WSW 28 35 15 19 1026.2 1027.1 0.0
27/06:00pm 3.4 -3.7 -1.0 73 1.7 W 26 35 14 19 1025.6 1026.5 0.0
27/05:30pm 4.1 -3.4 -1.1 69 2.0 WSW 28 44 15 24 1025.2 1026.1 0.0
27/05:00pm 5.1 -2.7 -1.1 64 2.4 WSW 30 43 16 23 1024.9 1025.8 0.0
27/04:30pm 5.9 -1.2 -1.3 60 2.8 WSW 26 39 14 21 1024.9 1025.8 0.0
27/04:00pm 6.4 -1.5 -1.2 58 3.0 WSW 30 43 16 23 1024.4 1025.2 0.0
27/03:30pm 6.6 -0.9 -1.3 57 3.1 WSW 28 39 15 21 1024.3 1025.1 0.0
27/03:00pm 6.6 -1.2 -1.1 58 3.0 WSW 30 43 16 23 1024.2 1025.0 0.0
27/02:30pm 6.8 -1.4 -1.1 57 3.1 WSW 32 43 17 23 1024.0 1024.9 0.0
27/02:00pm 6.9 -1.4 -1.7 54 3.3 W 32 46 17 25 1023.9 1024.8 0.0

Other Formats:

Comma delimited format used in spreadsheet applications
http://www.bom.gov.au/fwo/IDN60801/IDN60801.94746.axf

JavaScript Object Notation format (JSON) in row-major order
http://www.bom.gov.au/fwo/IDN60801/IDN60801.94746.json